Station: Walungurru (Kintore)

  Atmospheric Gas Attenuation - ITU Rec 676-11   --------------- db/100km ---------------
Date Time Temp RH % AH g/m3 Dew Point Wind Direction Speed kph Gust kph Barometer mB Rainfall Since 9am 24GHz 47GHz 76GHz 122GHz 134GHz 241GHz
11 21:20 25.5 26 6.16 4.6 20 26 1015 0 14.0 19.6 26.5 69.1 58.6 200.3
11 21:10 25.7 26 6.22 4.8 20 24 1014.9 0 14.1 19.6 26.6 69.4 59.1 202.0
11 21:00 26.1 26 6.37 5.1 22 30 1013.8 0 14.4 19.7 26.9 70.2 60.3 206.3
11 20:50 26.9 25 6.4 5.2 15 20 1014.6 0 14.4 19.6 26.8 69.9 60.1 205.5
11 20:40 27.2 24 6.25 4.9 15 17 1014.4 0 14.1 19.3 26.2 68.4 58.3 199.4
11 20:30 27.2 24 6.25 4.9 15 20 1013.3 0 14.1 19.3 26.2 68.3 58.3 199.2
11 20:20 27.2 24 6.25 4.9 15 17 1014.2 0 14.1 19.3 26.2 68.4 58.3 199.4
11 20:10 27.3 24 6.28 5 13 15 1014.1 0 14.2 19.3 26.3 68.5 58.5 200.2
11 20:00 27.5 24 6.35 5.1 17 20 1013 0 14.3 19.3 26.4 68.9 59.0 202.0
11 19:50 27.6 24 6.39 5.2 15 19 1013.9 0 14.4 19.4 26.5 69.2 59.4 203.4
11 19:40 27.5 25 6.61 5.7 15 17 1013.8 0 14.8 19.7 27.2 71.1 61.7 211.5
11 19:30 27.6 25 6.65 5.8 15 20 1012.7 0 14.9 19.7 27.3 71.2 62.0 212.5
11 19:20 27.7 25 6.69 5.9 11 13 1013.6 0 15.0 19.7 27.4 71.5 62.4 213.8
11 19:10 27.9 25 6.76 6.1 15 17 1013.6 0 15.1 19.8 27.6 72.0 63.0 215.8
11 19:00 28 24 6.53 5.6 15 19 1012.5 0 14.7 19.4 26.8 69.9 60.5 207.1
11 18:50 28.3 24 6.64 5.8 17 19 1013.3 0 14.9 19.5 27.1 70.6 61.4 210.5
11 18:40 28.5 24 6.71 6 17 19 1013.2 0 15.0 19.6 27.2 71.0 62.0 212.4
11 18:30 28.8 24 6.82 6.2 17 20 1012.2 0 15.2 19.6 27.4 71.6 62.8 215.4
11 18:20 28.9 23 6.57 5.7 17 17 1013.1 0 14.7 19.3 26.6 69.5 60.3 206.5
11 18:10 29.2 23 6.68 6 15 17 1013.1 0 14.9 19.4 26.9 70.2 61.1 209.6
11 18:00 29.3 23 6.72 6 17 22 1012.1 0 15.0 19.4 26.9 70.3 61.4 210.6
11 17:50 29.5 23 6.79 6.2 17 20 1013 0 15.1 19.5 27.1 70.8 62.0 212.7
11 17:40 29.7 23 6.86 6.4 17 19 1013 0 15.3 19.5 27.3 71.2 62.6 214.7
11 17:30 29.9 23 6.94 6.5 15 22 1012.2 0 15.4 19.6 27.4 71.6 63.2 216.8
11 17:20 29.9 22 6.64 5.9 19 22 1013.1 0 14.8 19.2 26.5 69.3 60.2 206.5
11 17:10 29.9 23 6.94 6.5 20 28 1013 0 15.4 19.6 27.4 71.7 63.2 217.0
11 17:00 29.9 22 6.64 5.9 19 30 1012.2 0 14.8 19.2 26.5 69.2 60.2 206.3
11 16:50 30.2 22 6.75 6.1 17 20 1013.1 0 15.0 19.3 26.8 69.9 61.1 209.6
11 16:40 30.5 22 6.86 6.4 17 20 1013.1 0 15.2 19.4 27.0 70.5 62.0 212.7
11 16:30 30.3 22 6.78 6.2 20 33 1012.3 0 15.1 19.3 26.8 70.0 61.3 210.2
11 16:20 30.4 22 6.82 6.3 22 26 1013.1 0 15.2 19.3 26.9 70.3 61.7 211.5
11 16:10 30.1 22 6.71 6.1 13 17 1013.3 0 14.9 19.3 26.7 69.7 60.8 208.5
11 16:00 30.5 22 6.86 6.4 17 24 1012.5 0 15.2 19.4 27.0 70.5 62.0 212.6
11 15:50 29.8 22 6.6 5.8 11 13 1013.6 0 14.7 19.2 26.5 69.1 59.9 205.4
11 15:40 30.1 22 6.71 6.1 13 17 1013.7 0 14.9 19.3 26.7 69.7 60.8 208.5
11 15:30 30.1 22 6.71 6.1 19 30 1012.7 0 14.9 19.3 26.7 69.6 60.8 208.4
11 15:20 29.8 23 6.9 6.5 19 20 1013.8 0 15.3 19.6 27.4 71.5 62.9 216.0
11 15:10 29.7 23 6.86 6.4 15 15 1013.9 0 15.3 19.6 27.3 71.3 62.6 214.8
11 15:00 29.9 23 6.94 6.5 20 30 1013 0 15.4 19.6 27.4 71.7 63.2 217.0
11 14:50 30 23 6.98 6.6 24 32 1014 0 15.5 19.6 27.6 72.0 63.6 218.3
11 14:40 29.9 23 6.94 6.5 26 32 1014.3 0 15.4 19.6 27.5 71.8 63.3 217.2
11 14:30 29.7 24 7.16 7 20 28 1013.4 0 15.9 19.9 28.2 73.7 65.6 225.4
11 14:20 29.3 24 7.01 6.7 15 17 1014.6 0 15.6 19.8 27.9 72.9 64.5 221.3
11 14:10 29.4 23 6.75 6.1 24 26 1014.7 0 15.1 19.5 27.1 70.7 61.8 211.9
11 14:00 29 24 6.89 6.4 24 33 1013.9 0 15.4 19.7 27.6 72.1 63.5 217.7
11 13:50 28.5 25 6.99 6.6 19 24 1014.9 0 15.6 20.0 28.1 73.4 64.9 222.8
11 13:40 28.3 25 6.91 6.4 15 22 1015.1 0 15.4 19.9 27.9 73.0 64.3 220.5
11 13:30 28.1 26 7.11 6.8 20 33 1014.3 0 15.8 20.2 28.6 74.8 66.4 228.1
11 13:20 27.9 25 6.76 6.1 19 22 1015.5 0 15.1 19.9 27.6 72.1 63.1 216.2
11 13:10 28 26 7.07 6.7 20 24 1015.7 0 15.8 20.2 28.6 74.6 66.2 227.2
11 13:00 28 26 7.07 6.7 24 30 1014.9 0 15.8 20.2 28.5 74.6 66.1 227.0
11 12:50 27.7 27 7.22 7 19 22 1016.1 0 16.1 20.5 29.2 76.2 68.0 233.6
11 12:40 27.1 27 6.99 6.5 26 32 1016.2 0 15.6 20.3 28.6 74.8 66.1 226.8
11 12:30 27.2 27 7.03 6.6 24 35 1015.3 0 15.7 20.3 28.7 75.0 66.4 227.8
11 12:20 26.9 28 7.17 6.9 26 33 1016.4 0 16.0 20.6 29.3 76.5 68.2 234.0
11 12:10 26.4 29 7.22 6.9 20 24 1016.6 0 16.1 20.8 29.6 77.4 69.1 237.3
11 12:00 26 28 6.82 6.1 26 37 1015.7 0 15.3 20.3 28.5 74.3 65.2 223.4
11 11:50 26.3 29 7.18 6.9 33 39 1016.9 0 16.1 20.8 29.5 77.2 68.8 236.2
11 11:40 26 30 7.3 7.1 24 30 1017.1 0 16.3 21.0 30.1 78.5 70.4 241.6
11 11:30 26.1 29 7.1 6.7 24 35 1016.3 0 15.9 20.7 29.3 76.6 68.1 233.6
11 11:20 25.6 30 7.14 6.7 24 30 1017.2 0 16.0 20.9 29.7 77.5 69.0 236.7
11 11:10 25.9 31 7.51 7.5 19 22 1017.2 0 16.8 21.3 30.8 80.5 72.7 249.9
11 11:00 24.9 30 6.87 6.1 28 39 1016.3 0 15.5 20.7 29.0 75.8 66.6 228.4
11 10:50 25.5 30 7.1 6.7 32 37 1017.2 0 15.9 20.9 29.6 77.3 68.6 235.5
11 10:40 24.3 32 7.08 6.6 32 35 1017.2 0 15.9 21.1 29.9 78.2 69.4 238.2
11 10:30 24.4 32 7.12 6.6 28 39 1016.3 0 16.0 21.1 30.0 78.4 69.7 239.2
11 10:20 23.4 33 6.94 6.2 24 30 1017.3 0 15.7 21.1 29.8 77.8 68.7 235.4
11 10:10 24.1 33 7.22 6.8 24 33 1017.3 0 16.2 21.3 30.5 79.7 71.1 244.2
11 10:00 23.1 34 7.03 6.4 32 43 1016.4 0 15.9 21.3 30.2 78.8 69.9 239.6
11 09:50 23.1 34 7.03 6.4 28 32 1017.3 0 15.9 21.3 30.2 78.9 69.9 239.8
11 09:40 22.9 35 7.15 6.6 33 39 1017.5 0 16.1 21.5 30.7 80.2 71.4 245.0
11 09:30 22.6 35 7.03 6.4 30 39 1016.4 0 15.9 21.4 30.4 79.3 70.3 241.0
11 09:20 21.9 37 7.14 6.6 28 32 1017.5 0 16.1 21.7 31.0 81.1 72.2 247.7
11 09:10 22 37 7.18 6.7 35 39 1017.2 0 16.2 21.8 31.1 81.3 72.6 248.9
11 09:00 21.7 38 7.25 6.8 28 39 1016.2 0 16.4 21.9 31.4 82.2 73.6 252.3
11 08:50 21.3 39 7.27 6.8 35 41 1016.9 0 16.4 22.0 31.7 82.8 74.2 254.5
11 08:40 21.3 39 7.27 6.8 30 35 1017 0 16.4 22.0 31.7 82.8 74.2 254.6
11 08:30 21.2 39 7.23 6.7 24 35 1016.1 0 16.4 22.0 31.6 82.5 73.8 253.1
11 08:20 21 40 7.33 6.9 26 32 1017 0 16.6 22.2 32.0 83.7 75.2 257.9
11 08:10 21 40 7.33 6.9 26 30 1016.8 0 16.6 22.2 32.0 83.7 75.1 257.9
11 08:00 21 40 7.33 6.9 24 39 1015.6 0 16.6 22.2 32.0 83.6 75.1 257.6
11 07:50 21 40 7.33 6.9 24 28 1016.5 0 16.6 22.2 32.0 83.7 75.1 257.8
11 07:40 21 40 7.33 6.9 24 32 1016.4 0 16.6 22.2 32.0 83.7 75.1 257.8
11 07:30 21 40 7.33 6.9 26 41 1015.3 0 16.6 22.1 32.0 83.6 75.1 257.5
11 07:20 21.1 39 7.19 6.6 33 37 1016.2 0 16.3 22.0 31.5 82.2 73.4 251.8
11 07:10 21.1 39 7.19 6.6 28 33 1016.1 0 16.3 22.0 31.5 82.2 73.4 251.8
11 07:00 21.2 39 7.23 6.7 26 41 1014.9 0 16.4 21.9 31.5 82.4 73.7 252.8
11 06:50 21.3 39 7.27 6.8 24 32 1015.8 0 16.4 22.0 31.6 82.7 74.1 254.3
11 06:40 21.3 39 7.27 6.8 22 30 1015.8 0 16.4 22.0 31.6 82.7 74.1 254.3
11 06:30 21.4 40 7.5 7.3 22 30 1014.7 0 16.9 22.3 32.4 84.7 76.6 263.0
11 06:20 21.4 40 7.5 7.3 22 26 1015.6 0 16.9 22.3 32.4 84.8 76.6 263.2
11 06:10 21.5 40 7.54 7.3 28 30 1015.3 0 17.0 22.3 32.5 85.0 77.0 264.4
11 06:00 21.5 40 7.54 7.3 24 35 1014.5 0 17.0 22.3 32.5 84.9 76.9 264.2
11 05:50 21.6 40 7.59 7.4 30 35 1015.2 0 17.1 22.4 32.6 85.3 77.5 266.0
11 05:40 21.6 40 7.59 7.4 26 30 1015.2 0 17.1 22.4 32.6 85.3 77.5 266.0
11 04:50 21.9 42 8.1 8.4 28 33 1014.6 0 18.2 23.0 34.3 89.7 83.0 285.6
11 04:40 22 43 8.34 8.9 28 33 1014.4 0 18.7 23.3 35.1 91.9 85.7 295.0
11 04:30 22 43 8.34 8.9 30 44 1013.4 0 18.7 23.3 35.0 91.8 85.6 294.7
11 04:20 22.1 45 8.78 9.6 24 30 1014.3 0 19.6 23.9 36.6 96.0 90.8 312.8
11 04:10 22.2 45 8.83 9.7 33 37 1014.3 0 19.7 24.0 36.7 96.3 91.2 314.5

Last Refresh: 11-Apr-2021 21:26:29

Bureau of Meteorology